Time;durP1;ratioP1;P1;durP2;ratioP2;P2;SDS_P1;SDS_P2;PMS_P1;PMS_P2;Temp;Humidity;BMP_temperature;BMP_pressure;BME280_temperature;BME280_humidity;BME280_pressure;Samples;Min_cycle;Max_cycle;Signal;HPM_P1;HPM_P2
2023/06/06 00:02:19;;;;;;;10.32;2.80;;;;;;;;;;7374395;19;20019;-71
2023/06/06 00:04:49;;;;;;;5.22;2.90;;;;;;;;;;7393320;19;20074;-71
2023/06/06 00:07:18;;;;;;;7.10;3.70;;;;;;;;;;7369693;19;20655;-71
2023/06/06 00:09:44;;;;;;;5.38;3.10;;;;;;;;;;7370134;19;20045;-70
2023/06/06 00:12:12;;;;;;;6.32;2.83;;;;;;;;;;7368269;19;20033;-70
2023/06/06 00:14:41;;;;;;;5.90;3.33;;;;;;;;;;7369146;19;20060;-71
2023/06/06 00:17:08;;;;;;;6.80;3.22;;;;;;;;;;7366343;19;20419;-71
2023/06/06 00:19:35;;;;;;;6.05;3.20;;;;;;;;;;7388420;19;20003;-71
2023/06/06 00:22:01;;;;;;;5.40;3.20;;;;;;;;;;7366111;19;20016;-71
2023/06/06 00:24:26;;;;;;;8.15;3.47;;;;;;;;;;7366853;19;20014;-71
2023/06/06 00:26:52;;;;;;;6.70;2.90;;;;;;;;;;7366677;19;20007;-71
2023/06/06 00:29:17;;;;;;;6.43;3.00;;;;;;;;;;7364980;19;20113;-71
2023/06/06 00:31:42;;;;;;;5.18;3.00;;;;;;;;;;7388954;19;20007;-71
2023/06/06 00:34:08;;;;;;;6.70;3.10;;;;;;;;;;7366913;19;20022;-70
2023/06/06 00:36:33;;;;;;;5.93;3.13;;;;;;;;;;7371789;19;20538;-70
2023/06/06 00:38:58;;;;;;;6.68;3.10;;;;;;;;;;7372365;19;20010;-70
2023/06/06 00:41:24;;;;;;;7.68;3.15;;;;;;;;;;7372483;19;20014;-70
2023/06/06 00:43:49;;;;;;;8.02;2.97;;;;;;;;;;7394564;19;20006;-71
2023/06/06 00:46:15;;;;;;;7.78;2.80;;;;;;;;;;7372525;19;20046;-71
2023/06/06 00:48:41;;;;;;;6.32;3.05;;;;;;;;;;7374923;19;20015;-71
2023/06/06 00:51:08;;;;;;;5.45;2.70;;;;;;;;;;7373491;19;20010;-70
2023/06/06 00:53:34;;;;;;;8.55;3.35;;;;;;;;;;7376003;19;20350;-71
2023/06/06 00:55:59;;;;;;;6.55;3.05;;;;;;;;;;7400250;19;20014;-71
2023/06/06 00:58:27;;;;;;;6.93;2.83;;;;;;;;;;7378220;19;20372;-70
2023/06/06 01:00:52;;;;;;;6.88;3.10;;;;;;;;;;7381268;19;20485;-71
2023/06/06 01:03:19;;;;;;;7.28;3.40;;;;;;;;;;7383558;19;20018;-70
2023/06/06 01:05:46;;;;;;;6.07;2.90;;;;;;;;;;7381393;19;20050;-70
2023/06/06 01:08:12;;;;;;;5.05;2.75;;;;;;;;;;7377854;19;20015;-71
2023/06/06 01:10:39;;;;;;;7.88;3.30;;;;;;;;;;7393920;19;20018;-71
2023/06/06 01:13:36;;;;;;;11.80;3.50;;;;;;;;;;7368199;19;20014;-70
2023/06/06 01:16:05;;;;;;;14.25;3.60;;;;;;;;;;7366894;19;20006;-71
2023/06/06 01:18:31;;;;;;;7.05;3.17;;;;;;;;;;7372056;19;20014;-71
2023/06/06 01:20:58;;;;;;;7.93;3.60;;;;;;;;;;7371010;19;20014;-71
2023/06/06 01:23:27;;;;;;;8.27;3.10;;;;;;;;;;7365439;19;20473;-71
2023/06/06 01:25:53;;;;;;;6.25;3.28;;;;;;;;;;7388569;19;20548;-71
2023/06/06 01:28:18;;;;;;;9.98;3.30;;;;;;;;;;7362125;19;20014;-71
2023/06/06 01:30:45;;;;;;;6.50;3.13;;;;;;;;;;7364302;19;20014;-70
2023/06/06 01:33:22;;;;;;;9.40;3.60;;;;;;;;;;7365193;19;20014;-71
2023/06/06 01:36:14;;;;;;;7.70;3.05;;;;;;;;;;7364575;19;20372;-71
2023/06/06 01:38:44;;;;;;;9.00;3.40;;;;;;;;;;7363609;19;20015;-70
2023/06/06 01:41:12;;;;;;;6.90;3.30;;;;;;;;;;7366083;19;20023;-71
2023/06/06 01:43:40;;;;;;;11.95;3.75;;;;;;;;;;7386813;19;20046;-71
2023/06/06 01:46:07;;;;;;;9.57;3.90;;;;;;;;;;7363914;19;20014;-71
2023/06/06 01:48:33;;;;;;;9.80;3.78;;;;;;;;;;7363805;19;20501;-71
2023/06/06 01:50:59;;;;;;;7.43;3.45;;;;;;;;;;7363306;19;20025;-71
2023/06/06 01:53:24;;;;;;;8.40;3.40;;;;;;;;;;7364348;19;20022;-71
2023/06/06 01:55:50;;;;;;;9.02;3.13;;;;;;;;;;7388310;19;20785;-71
2023/06/06 01:58:17;;;;;;;7.07;3.03;;;;;;;;;;7362013;19;20030;-71
2023/06/06 02:00:42;;;;;;;8.45;3.80;;;;;;;;;;7363798;19;20018;-71
2023/06/06 02:03:08;;;;;;;8.52;3.13;;;;;;;;;;7364466;19;20022;-71
2023/06/06 02:05:33;;;;;;;8.25;3.60;;;;;;;;;;7364778;19;20120;-71
2023/06/06 02:07:59;;;;;;;12.70;3.05;;;;;;;;;;7384981;19;20010;-71
2023/06/06 02:10:24;;;;;;;6.32;3.53;;;;;;;;;;7363614;19;20358;-71
2023/06/06 02:12:49;;;;;;;7.03;3.35;;;;;;;;;;7363409;19;20002;-71
2023/06/06 02:15:15;;;;;;;7.88;3.88;;;;;;;;;;7363262;19;20367;-71
2023/06/06 02:17:41;;;;;;;7.28;3.20;;;;;;;;;;7363324;19;20010;-71
2023/06/06 02:20:10;;;;;;;8.57;3.63;;;;;;;;;;7364038;19;20010;-71
2023/06/06 02:22:36;;;;;;;7.18;3.53;;;;;;;;;;7387379;19;20018;-71
2023/06/06 02:25:03;;;;;;;8.68;3.92;;;;;;;;;;7361442;19;20003;-71
2023/06/06 02:27:30;;;;;;;6.93;3.58;;;;;;;;;;7362839;19;20025;-71
2023/06/06 02:29:55;;;;;;;8.73;3.58;;;;;;;;;;7363372;19;20003;-71
2023/06/06 02:32:21;;;;;;;11.38;3.92;;;;;;;;;;7364856;19;20037;-71
2023/06/06 02:34:46;;;;;;;7.43;3.53;;;;;;;;;;7385150;19;20082;-70
2023/06/06 02:37:11;;;;;;;6.47;3.78;;;;;;;;;;7361124;19;20118;-70
2023/06/06 02:39:37;;;;;;;8.02;3.50;;;;;;;;;;7361449;19;20015;-70
2023/06/06 02:42:06;;;;;;;11.60;3.58;;;;;;;;;;7369194;19;20032;-70
2023/06/06 02:44:32;;;;;;;8.32;3.47;;;;;;;;;;7372748;19;20014;-70
2023/06/06 02:46:57;;;;;;;5.90;3.30;;;;;;;;;;7392589;19;20003;-70
2023/06/06 02:49:23;;;;;;;13.52;3.70;;;;;;;;;;7370331;19;20469;-70
2023/06/06 02:51:48;;;;;;;7.45;3.55;;;;;;;;;;7372431;19;20073;-70
2023/06/06 02:54:13;;;;;;;6.25;3.60;;;;;;;;;;7371759;19;20528;-70
2023/06/06 02:56:39;;;;;;;7.55;3.80;;;;;;;;;;7372476;19;20093;-70
2023/06/06 02:59:06;;;;;;;7.05;3.65;;;;;;;;;;7371851;19;20092;-71
2023/06/06 03:01:31;;;;;;;6.43;3.67;;;;;;;;;;7393632;19;19998;-70
2023/06/06 03:03:56;;;;;;;7.90;3.38;;;;;;;;;;7370402;19;20146;-70
2023/06/06 03:06:22;;;;;;;7.93;4.13;;;;;;;;;;7370896;19;20006;-69
2023/06/06 03:08:47;;;;;;;7.65;3.72;;;;;;;;;;7371842;19;20044;-70
2023/06/06 03:11:12;;;;;;;10.60;4.10;;;;;;;;;;7372562;19;19998;-71
2023/06/06 03:13:38;;;;;;;5.72;3.45;;;;;;;;;;7396921;19;19995;-71
2023/06/06 03:16:04;;;;;;;8.23;3.80;;;;;;;;;;7372603;19;20015;-70
2023/06/06 03:18:30;;;;;;;10.27;3.90;;;;;;;;;;7369772;19;20032;-70
2023/06/06 03:20:55;;;;;;;9.20;3.83;;;;;;;;;;7370220;19;20078;-70
2023/06/06 03:23:22;;;;;;;10.02;4.20;;;;;;;;;;7372594;19;20025;-71
2023/06/06 03:25:51;;;;;;;8.10;3.30;;;;;;;;;;7385719;19;20006;-70
2023/06/06 03:28:18;;;;;;;8.90;3.90;;;;;;;;;;7363641;19;20036;-70
2023/06/06 03:30:45;;;;;;;9.00;3.97;;;;;;;;;;7367223;19;20018;-70
2023/06/06 03:33:11;;;;;;;7.18;3.83;;;;;;;;;;7371072;19;20369;-70
2023/06/06 03:35:37;;;;;;;8.38;3.63;;;;;;;;;;7370605;19;20086;-70
2023/06/06 03:38:02;;;;;;;6.65;3.80;;;;;;;;;;7368649;19;20453;-71
2023/06/06 03:40:28;;;;;;;7.90;3.85;;;;;;;;;;7391530;19;20011;-70
2023/06/06 03:42:53;;;;;;;6.75;3.45;;;;;;;;;;7369882;19;20529;-70
2023/06/06 03:45:22;;;;;;;9.32;3.50;;;;;;;;;;7372441;19;20010;-70
2023/06/06 03:47:49;;;;;;;6.45;3.47;;;;;;;;;;7370529;19;20010;-71
2023/06/06 03:50:14;;;;;;;8.45;3.60;;;;;;;;;;7371522;19;20003;-70
2023/06/06 03:52:42;;;;;;;7.97;3.30;;;;;;;;;;7398376;19;20094;-71
2023/06/06 03:55:09;;;;;;;11.65;3.67;;;;;;;;;;7374596;19;20064;-71
2023/06/06 03:57:36;;;;;;;7.20;3.50;;;;;;;;;;7369752;19;20356;-70
2023/06/06 04:00:04;;;;;;;6.00;3.33;;;;;;;;;;7370267;19;20018;-70
2023/06/06 04:02:31;;;;;;;8.05;3.45;;;;;;;;;;7370095;19;20044;-70
2023/06/06 04:05:01;;;;;;;8.48;3.70;;;;;;;;;;7392204;19;20058;-71
2023/06/06 04:07:28;;;;;;;7.55;3.60;;;;;;;;;;7370123;19;20010;-70
2023/06/06 04:09:53;;;;;;;9.50;3.42;;;;;;;;;;7369204;19;20078;-71
2023/06/06 04:12:19;;;;;;;10.82;3.85;;;;;;;;;;7369952;19;20018;-71
2023/06/06 04:14:44;;;;;;;8.02;4.10;;;;;;;;;;7369874;19;20010;-70
2023/06/06 04:17:10;;;;;;;8.95;3.40;;;;;;;;;;7370141;19;20114;-70
2023/06/06 04:19:36;;;;;;;8.13;3.75;;;;;;;;;;7390144;19;20476;-71
2023/06/06 04:22:02;;;;;;;12.80;4.50;;;;;;;;;;7368984;19;20094;-71
2023/06/06 04:24:28;;;;;;;10.85;4.53;;;;;;;;;;7369668;19;20097;-71
2023/06/06 04:26:53;;;;;;;10.85;4.32;;;;;;;;;;7367990;19;20031;-70
2023/06/06 04:29:19;;;;;;;13.23;4.00;;;;;;;;;;7366120;19;20007;-71
2023/06/06 04:31:47;;;;;;;11.57;3.90;;;;;;;;;;7390071;19;20015;-71
2023/06/06 04:34:12;;;;;;;11.68;4.10;;;;;;;;;;7368067;19;20003;-70
2023/06/06 04:36:38;;;;;;;12.55;4.38;;;;;;;;;;7369371;19;20021;-71
2023/06/06 04:39:08;;;;;;;8.82;4.00;;;;;;;;;;7370368;19;20076;-71
2023/06/06 04:41:34;;;;;;;8.20;4.28;;;;;;;;;;7367801;19;20016;-70
2023/06/06 04:44:01;;;;;;;8.80;3.45;;;;;;;;;;7391077;19;20006;-70
2023/06/06 04:46:29;;;;;;;9.15;3.95;;;;;;;;;;7367579;19;20006;-70
2023/06/06 04:48:55;;;;;;;7.00;3.63;;;;;;;;;;7366784;19;20014;-71
2023/06/06 04:51:29;;;;;;;8.20;3.88;;;;;;;;;;7368542;19;20010;-71
2023/06/06 04:53:58;;;;;;;8.32;3.80;;;;;;;;;;7362985;19;20025;-71
2023/06/06 04:56:28;;;;;;;7.50;3.97;;;;;;;;;;7379519;19;20022;-70
2023/06/06 04:58:54;;;;;;;7.90;3.90;;;;;;;;;;7398199;19;20003;-70
2023/06/06 05:01:19;;;;;;;7.80;3.58;;;;;;;;;;7367338;19;20039;-69
2023/06/06 05:03:45;;;;;;;11.07;3.70;;;;;;;;;;7372577;19;20028;-70
2023/06/06 05:06:10;;;;;;;7.35;3.97;;;;;;;;;;7368675;19;20584;-70
2023/06/06 05:08:41;;;;;;;8.13;3.70;;;;;;;;;;7368864;19;20010;-70
2023/06/06 05:11:09;;;;;;;8.95;3.70;;;;;;;;;;7375932;19;20006;-70
2023/06/06 05:13:35;;;;;;;8.43;3.42;;;;;;;;;;7400580;19;20022;-70
2023/06/06 05:16:00;;;;;;;7.40;3.60;;;;;;;;;;7383583;19;20015;-71
2023/06/06 05:18:26;;;;;;;7.95;3.53;;;;;;;;;;7379347;19;20021;-69
2023/06/06 05:20:51;;;;;;;10.25;4.47;;;;;;;;;;7382081;19;20010;-69
2023/06/06 05:23:16;;;;;;;9.75;4.10;;;;;;;;;;7381046;19;20109;-70
2023/06/06 05:25:42;;;;;;;8.90;3.80;;;;;;;;;;7402148;19;19998;-70
2023/06/06 05:28:07;;;;;;;9.27;3.85;;;;;;;;;;7368382;19;20085;-70
2023/06/06 05:30:32;;;;;;;5.57;3.25;;;;;;;;;;7370149;19;20033;-70
2023/06/06 05:32:57;;;;;;;9.05;3.60;;;;;;;;;;7369651;19;20006;-70
2023/06/06 05:35:23;;;;;;;7.25;3.88;;;;;;;;;;7369617;19;20006;-70
2023/06/06 05:37:49;;;;;;;13.27;4.05;;;;;;;;;;7389615;19;20217;-71
2023/06/06 05:40:14;;;;;;;8.18;3.50;;;;;;;;;;7367806;19;19994;-70
2023/06/06 05:42:40;;;;;;;8.30;3.58;;;;;;;;;;7369679;19;20019;-71
2023/06/06 05:45:05;;;;;;;10.02;3.70;;;;;;;;;;7368499;19;20023;-70
2023/06/06 05:47:31;;;;;;;8.65;3.45;;;;;;;;;;7367830;19;20511;-71
2023/06/06 05:49:56;;;;;;;8.98;3.45;;;;;;;;;;7389601;19;20007;-70
2023/06/06 05:52:21;;;;;;;7.13;3.63;;;;;;;;;;7367429;19;20006;-71
2023/06/06 05:54:47;;;;;;;7.22;3.53;;;;;;;;;;7368263;19;20564;-70
2023/06/06 05:57:22;;;;;;;10.20;3.70;;;;;;;;;;7367955;19;20073;-71
2023/06/06 05:59:48;;;;;;;7.70;3.70;;;;;;;;;;7367599;19;20377;-66
2023/06/06 06:02:14;;;;;;;8.82;3.60;;;;;;;;;;7367967;19;20006;-65
2023/06/06 06:04:40;;;;;;;15.27;3.67;;;;;;;;;;7397685;19;20005;-72
2023/06/06 06:07:06;;;;;;;13.25;4.00;;;;;;;;;;7372984;19;20052;-72
2023/06/06 06:09:32;;;;;;;8.48;3.10;;;;;;;;;;7371451;19;20041;-72
2023/06/06 06:11:57;;;;;;;9.98;3.35;;;;;;;;;;7370256;19;20496;-70
2023/06/06 06:14:23;;;;;;;13.23;3.50;;;;;;;;;;7371249;19;20078;-69
2023/06/06 06:16:48;;;;;;;5.43;3.15;;;;;;;;;;7396796;19;20003;-69
2023/06/06 06:19:13;;;;;;;8.75;3.10;;;;;;;;;;7374988;19;20011;-69
2023/06/06 06:21:39;;;;;;;6.05;3.50;;;;;;;;;;7376680;19;20515;-68
2023/06/06 06:24:05;;;;;;;11.23;3.47;;;;;;;;;;7377824;19;20010;-69
2023/06/06 06:26:31;;;;;;;6.88;3.22;;;;;;;;;;7377822;19;20066;-69
2023/06/06 06:28:58;;;;;;;6.20;3.15;;;;;;;;;;7396464;19;20066;-62
2023/06/06 06:31:23;;;;;;;10.43;3.60;;;;;;;;;;7375408;19;20003;-63
2023/06/06 06:33:48;;;;;;;11.45;3.58;;;;;;;;;;7373031;19;20032;-64
2023/06/06 06:36:14;;;;;;;10.02;3.30;;;;;;;;;;7379959;19;20061;-64
2023/06/06 06:38:39;;;;;;;10.38;3.72;;;;;;;;;;7381693;19;20007;-64
2023/06/06 06:41:04;;;;;;;6.55;3.05;;;;;;;;;;7381291;19;20042;-64
2023/06/06 06:43:30;;;;;;;6.57;3.38;;;;;;;;;;7403317;19;19999;-63
2023/06/06 06:45:55;;;;;;;8.25;3.15;;;;;;;;;;7380244;19;20799;-63
2023/06/06 06:48:21;;;;;;;5.90;3.33;;;;;;;;;;7381605;19;20002;-64
2023/06/06 06:50:46;;;;;;;6.53;3.00;;;;;;;;;;7375619;19;20093;-63
2023/06/06 06:53:13;;;;;;;7.68;3.22;;;;;;;;;;7377065;19;20003;-64
2023/06/06 06:55:41;;;;;;;7.97;3.20;;;;;;;;;;7411285;19;20051;-73
2023/06/06 06:58:06;;;;;;;7.28;3.30;;;;;;;;;;7382775;19;20011;-67
2023/06/06 07:00:33;;;;;;;6.70;3.25;;;;;;;;;;7391175;19;20109;-68
2023/06/06 07:02:59;;;;;;;10.98;3.55;;;;;;;;;;7392423;19;20014;-67
2023/06/06 07:05:26;;;;;;;5.88;3.03;;;;;;;;;;7386046;19;20055;-71
2023/06/06 07:07:53;;;;;;;7.50;3.05;;;;;;;;;;7406305;19;20161;-68
2023/06/06 07:10:20;;;;;;;10.65;3.13;;;;;;;;;;7389091;19;20019;-73
2023/06/06 07:12:47;;;;;;;7.68;3.25;;;;;;;;;;7393011;19;20094;-72
2023/06/06 07:15:13;;;;;;;5.25;3.10;;;;;;;;;;7387724;19;20047;-67
2023/06/06 07:17:38;;;;;;;9.13;3.50;;;;;;;;;;7374627;19;20020;-69
2023/06/06 07:20:05;;;;;;;5.43;3.05;;;;;;;;;;7375167;19;20002;-70
2023/06/06 07:22:36;;;;;;;9.40;3.28;;;;;;;;;;7398681;19;20006;-69
2023/06/06 07:25:02;;;;;;;5.60;3.05;;;;;;;;;;7370844;19;20740;-67
2023/06/06 07:27:29;;;;;;;7.85;3.10;;;;;;;;;;7369885;19;20372;-68
2023/06/06 07:29:54;;;;;;;6.03;3.35;;;;;;;;;;7370893;19;20465;-69
2023/06/06 07:32:20;;;;;;;7.10;2.95;;;;;;;;;;7377415;19;20037;-68
2023/06/06 07:34:45;;;;;;;5.45;2.75;;;;;;;;;;7396233;19;20010;-69
2023/06/06 07:37:11;;;;;;;5.78;2.97;;;;;;;;;;7373576;19;20007;-66
2023/06/06 07:39:36;;;;;;;8.55;3.33;;;;;;;;;;7370920;19;20089;-67
2023/06/06 07:42:01;;;;;;;10.45;3.50;;;;;;;;;;7373523;19;20013;-68
2023/06/06 07:44:27;;;;;;;5.22;3.03;;;;;;;;;;7370685;19;20017;-68
2023/06/06 07:46:52;;;;;;;6.97;3.03;;;;;;;;;;7391966;19;20021;-68
2023/06/06 07:49:17;;;;;;;5.57;2.73;;;;;;;;;;7367993;19;20235;-66
2023/06/06 07:51:43;;;;;;;5.82;2.90;;;;;;;;;;7371110;19;20252;-68
2023/06/06 07:54:08;;;;;;;5.63;2.92;;;;;;;;;;7370907;19;20010;-65
2023/06/06 07:56:36;;;;;;;4.82;2.75;;;;;;;;;;7368613;19;20121;-64
2023/06/06 07:59:02;;;;;;;5.53;2.90;;;;;;;;;;7368002;19;20006;-65
2023/06/06 08:01:29;;;;;;;6.07;3.10;;;;;;;;;;7393555;19;19994;-66
2023/06/06 08:03:55;;;;;;;5.32;2.85;;;;;;;;;;7369423;19;20014;-68
2023/06/06 08:06:23;;;;;;;6.60;3.03;;;;;;;;;;7375439;19;20014;-72
2023/06/06 08:08:49;;;;;;;7.22;3.20;;;;;;;;;;7371142;19;20704;-69
2023/06/06 08:11:15;;;;;;;6.68;3.10;;;;;;;;;;7371020;19;20022;-68
2023/06/06 08:13:41;;;;;;;6.22;3.00;;;;;;;;;;7390344;19;20017;-69
2023/06/06 08:16:07;;;;;;;5.10;2.80;;;;;;;;;;7370006;19;20082;-67
2023/06/06 08:18:32;;;;;;;17.65;3.03;;;;;;;;;;7367277;19;20006;-66
2023/06/06 08:20:58;;;;;;;4.80;2.73;;;;;;;;;;7369440;19;20014;-64
2023/06/06 08:23:23;;;;;;;6.07;2.80;;;;;;;;;;7369111;19;20757;-64
2023/06/06 08:25:49;;;;;;;9.18;2.88;;;;;;;;;;7390842;19;20050;-66
2023/06/06 08:28:15;;;;;;;7.78;3.10;;;;;;;;;;7364912;19;20057;-64
2023/06/06 08:30:40;;;;;;;7.53;3.10;;;;;;;;;;7370518;19;20002;-64
2023/06/06 08:33:06;;;;;;;6.55;2.97;;;;;;;;;;7368768;19;20541;-65
2023/06/06 08:35:31;;;;;;;5.78;3.00;;;;;;;;;;7372918;19;20020;-69
2023/06/06 08:37:56;;;;;;;5.70;2.80;;;;;;;;;;7392537;19;20062;-68
2023/06/06 08:40:22;;;;;;;6.13;3.22;;;;;;;;;;7371027;19;20031;-70
2023/06/06 08:42:50;;;;;;;8.93;2.83;;;;;;;;;;7373210;19;20014;-71
2023/06/06 08:45:21;;;;;;;5.10;3.00;;;;;;;;;;7374629;19;20016;-72
2023/06/06 08:47:48;;;;;;;6.32;3.15;;;;;;;;;;7372058;19;20034;-72
2023/06/06 08:50:14;;;;;;;7.20;3.30;;;;;;;;;;7378932;19;20096;-73
2023/06/06 08:52:41;;;;;;;4.97;2.85;;;;;;;;;;7395069;19;20005;-70
2023/06/06 08:55:07;;;;;;;5.43;3.00;;;;;;;;;;7369560;19;20023;-70
2023/06/06 08:57:33;;;;;;;6.93;3.28;;;;;;;;;;7369759;19;20031;-69
2023/06/06 09:00:08;;;;;;;6.00;2.92;;;;;;;;;;7366436;19;20039;-68
2023/06/06 09:02:41;;;;;;;6.55;3.03;;;;;;;;;;7372149;19;20021;-65
2023/06/06 09:05:08;;;;;;;7.80;3.60;;;;;;;;;;7371011;19;20002;-64
2023/06/06 09:07:33;;;;;;;6.10;3.22;;;;;;;;;;7391602;19;20013;-64
2023/06/06 09:09:59;;;;;;;6.20;2.85;;;;;;;;;;7369806;19;20003;-63
2023/06/06 09:12:25;;;;;;;11.55;3.30;;;;;;;;;;7376342;19;19999;-66
2023/06/06 09:14:50;;;;;;;5.90;3.20;;;;;;;;;;7378546;19;21165;-69
2023/06/06 09:17:16;;;;;;;6.35;3.10;;;;;;;;;;7378155;19;20002;-69
2023/06/06 09:19:45;;;;;;;8.70;3.25;;;;;;;;;;7398783;19;20086;-72
2023/06/06 09:22:10;;;;;;;5.70;2.90;;;;;;;;;;7375472;19;20006;-70
2023/06/06 09:24:42;;;;;;;6.53;3.07;;;;;;;;;;7379682;19;20018;-67
2023/06/06 09:27:07;;;;;;;6.30;3.28;;;;;;;;;;7378755;19;20349;-69
2023/06/06 09:29:42;;;;;;;7.33;3.50;;;;;;;;;;7376988;19;20588;-71
2023/06/06 09:32:07;;;;;;;8.50;3.20;;;;;;;;;;7378274;19;20263;-65
2023/06/06 09:34:33;;;;;;;8.23;3.13;;;;;;;;;;7395274;19;20010;-68
2023/06/06 09:36:59;;;;;;;7.30;3.10;;;;;;;;;;7374738;19;20011;-65
2023/06/06 09:39:25;;;;;;;9.27;3.17;;;;;;;;;;7374618;19;20014;-67
2023/06/06 09:41:50;;;;;;;5.68;2.90;;;;;;;;;;7375190;19;20041;-67
2023/06/06 09:44:22;;;;;;;7.90;3.00;;;;;;;;;;7383778;19;20066;-64
2023/06/06 09:47:02;;;;;;;5.05;2.85;;;;;;;;;;7401612;19;19999;-66
2023/06/06 09:49:34;;;;;;;5.97;2.95;;;;;;;;;;7376133;19;20023;-69
2023/06/06 09:51:59;;;;;;;6.00;3.13;;;;;;;;;;7382716;19;20019;-66
2023/06/06 09:54:25;;;;;;;7.78;3.30;;;;;;;;;;7384527;19;20011;-65
2023/06/06 09:56:51;;;;;;;6.53;3.00;;;;;;;;;;7382957;19;20010;-68
2023/06/06 09:59:20;;;;;;;5.22;3.17;;;;;;;;;;7381173;19;20330;-65
2023/06/06 10:01:50;;;;;;;8.63;3.40;;;;;;;;;;7403743;19;20043;-64
2023/06/06 10:04:15;;;;;;;4.53;2.80;;;;;;;;;;7368442;19;20022;-65
2023/06/06 10:06:43;;;;;;;4.93;2.95;;;;;;;;;;7374980;19;20020;-65
2023/06/06 10:09:09;;;;;;;6.63;3.08;;;;;;;;;;7380768;19;20006;-64
2023/06/06 10:11:35;;;;;;;10.18;3.45;;;;;;;;;;7379624;19;20792;-64
2023/06/06 10:14:03;;;;;;;5.82;3.10;;;;;;;;;;7397574;19;20082;-64
2023/06/06 10:16:29;;;;;;;6.43;3.10;;;;;;;;;;7397147;19;20042;-64
2023/06/06 10:18:56;;;;;;;4.97;2.88;;;;;;;;;;7375800;19;20059;-65
2023/06/06 10:21:23;;;;;;;4.60;2.75;;;;;;;;;;7376276;19;20013;-65
2023/06/06 10:23:48;;;;;;;6.03;3.53;;;;;;;;;;7376709;19;20022;-64
2023/06/06 10:26:29;;;;;;;5.68;3.10;;;;;;;;;;7374291;19;20002;-64
2023/06/06 10:29:00;;;;;;;5.18;3.03;;;;;;;;;;7395719;19;20082;-65
2023/06/06 10:31:31;;;;;;;6.43;3.03;;;;;;;;;;7374831;19;19995;-65
2023/06/06 10:34:00;;;;;;;6.05;3.25;;;;;;;;;;7372925;19;20093;-69
2023/06/06 10:36:36;;;;;;;6.97;3.10;;;;;;;;;;7372123;19;20090;-68
2023/06/06 10:39:24;;;;;;;5.90;2.83;;;;;;;;;;7371216;19;20256;-68
2023/06/06 10:41:52;;;;;;;5.70;3.30;;;;;;;;;;7371025;19;20015;-68
2023/06/06 10:44:25;;;;;;;5.47;2.83;;;;;;;;;;7371396;19;20010;-69
2023/06/06 10:46:51;;;;;;;7.75;2.90;;;;;;;;;;7395556;19;20006;-70
2023/06/06 10:49:16;;;;;;;6.10;3.28;;;;;;;;;;7375105;19;20027;-69
2023/06/06 10:51:41;;;;;;;5.93;2.80;;;;;;;;;;7376224;19;20030;-69
2023/06/06 10:54:27;;;;;;;6.03;2.83;;;;;;;;;;7377121;19;20038;-68
2023/06/06 10:56:54;;;;;;;5.53;3.13;;;;;;;;;;7373815;19;20411;-67
2023/06/06 10:59:22;;;;;;;5.72;2.88;;;;;;;;;;7375496;19;20002;-69
2023/06/06 11:01:47;;;;;;;5.15;2.80;;;;;;;;;;7396082;19;20002;-66
2023/06/06 11:04:25;;;;;;;10.07;2.80;;;;;;;;;;7374999;19;20380;-68
2023/06/06 11:06:53;;;;;;;6.57;2.42;;;;;;;;;;7373289;19;19998;-69
2023/06/06 11:09:28;;;;;;;6.93;2.60;;;;;;;;;;7379336;19;20055;-69
2023/06/06 11:12:12;;;;;;;7.65;3.10;;;;;;;;;;7376958;19;20433;-64
2023/06/06 11:14:57;;;;;;;5.03;2.60;;;;;;;;;;7373732;19;20021;-66
2023/06/06 11:17:30;;;;;;;4.32;2.55;;;;;;;;;;7373356;19;20018;-66
2023/06/06 11:19:58;;;;;;;7.00;3.03;;;;;;;;;;7394957;19;20019;-66
2023/06/06 11:22:25;;;;;;;6.97;3.20;;;;;;;;;;7374267;19;20090;-67
2023/06/06 11:24:51;;;;;;;4.68;2.58;;;;;;;;;;7376089;19;20027;-67
2023/06/06 11:27:17;;;;;;;7.20;2.75;;;;;;;;;;7375828;19;20006;-66
2023/06/06 11:29:45;;;;;;;6.95;2.65;;;;;;;;;;7375885;19;20014;-68
2023/06/06 11:32:14;;;;;;;7.32;2.70;;;;;;;;;;7379342;19;20049;-66
2023/06/06 11:34:40;;;;;;;6.63;2.90;;;;;;;;;;7405430;19;20006;-69
2023/06/06 11:37:06;;;;;;;5.88;2.88;;;;;;;;;;7378031;19;20086;-70
2023/06/06 11:39:32;;;;;;;8.57;2.67;;;;;;;;;;7379536;19;19999;-71
2023/06/06 11:41:58;;;;;;;8.80;3.25;;;;;;;;;;7374761;19;20159;-68
2023/06/06 11:44:32;;;;;;;7.40;2.80;;;;;;;;;;7377939;19;20014;-72
2023/06/06 11:46:57;;;;;;;5.20;2.70;;;;;;;;;;7400039;19;19994;-71
2023/06/06 11:49:23;;;;;;;6.35;2.92;;;;;;;;;;7375979;19;20368;-66
2023/06/06 11:52:01;;;;;;;6.40;3.10;;;;;;;;;;7374077;19;20022;-65
2023/06/06 11:54:29;;;;;;;5.45;2.60;;;;;;;;;;7366871;19;20750;-64
2023/06/06 11:57:05;;;;;;;5.53;2.67;;;;;;;;;;7366893;19;20054;-65
2023/06/06 11:59:34;;;;;;;7.45;2.85;;;;;;;;;;7374500;19;20066;-66
2023/06/06 12:02:00;;;;;;;8.50;3.10;;;;;;;;;;7395305;19;20002;-66
2023/06/06 12:04:26;;;;;;;7.68;2.40;;;;;;;;;;7372767;19;20315;-67
2023/06/06 12:06:53;;;;;;;5.57;2.50;;;;;;;;;;7368809;19;20006;-67
2023/06/06 12:09:20;;;;;;;6.30;3.20;;;;;;;;;;7370068;19;20524;-66
2023/06/06 12:11:50;;;;;;;7.07;3.00;;;;;;;;;;7372575;19;20003;-68
2023/06/06 12:14:16;;;;;;;5.60;2.47;;;;;;;;;;7369169;19;20066;-67
2023/06/06 12:16:41;;;;;;;8.52;2.80;;;;;;;;;;7391952;19;20032;-68
2023/06/06 12:19:16;;;;;;;6.40;2.63;;;;;;;;;;7370300;19;20763;-66
2023/06/06 12:21:50;;;;;;;7.05;2.60;;;;;;;;;;7371312;19;20004;-66
2023/06/06 12:24:23;;;;;;;10.27;2.88;;;;;;;;;;7371458;19;20091;-63
2023/06/06 12:26:55;;;;;;;5.00;2.70;;;;;;;;;;7368220;19;20016;-64
2023/06/06 12:29:22;;;;;;;3.75;2.47;;;;;;;;;;7370174;19;20059;-66
2023/06/06 12:31:50;;;;;;;5.93;2.80;;;;;;;;;;7390999;19;20462;-64
2023/06/06 12:34:48;;;;;;;5.72;2.60;;;;;;;;;;7401633;19;20365;-64
2023/06/06 12:37:14;;;;;;;4.73;2.80;;;;;;;;;;7402272;19;20023;-66
2023/06/06 12:39:43;;;;;;;6.90;2.75;;;;;;;;;;7404503;19;20254;-66
2023/06/06 12:42:14;;;;;;;7.47;2.97;;;;;;;;;;7403327;19;20010;-65
2023/06/06 12:44:40;;;;;;;7.15;2.92;;;;;;;;;;7403405;19;20023;-65
2023/06/06 12:47:06;;;;;;;5.63;2.58;;;;;;;;;;7402914;19;20006;-66
2023/06/06 12:49:33;;;;;;;5.50;2.67;;;;;;;;;;7426319;19;20518;-66
2023/06/06 12:51:58;;;;;;;9.80;2.60;;;;;;;;;;7405065;19;20086;-66
2023/06/06 12:54:23;;;;;;;12.63;3.35;;;;;;;;;;7404958;19;20010;-66
2023/06/06 12:56:49;;;;;;;5.82;2.63;;;;;;;;;;7401920;19;20014;-67
2023/06/06 12:59:15;;;;;;;7.07;2.60;;;;;;;;;;7398472;19;20078;-66
2023/06/06 13:01:41;;;;;;;5.50;2.75;;;;;;;;;;7424311;19;20014;-67
2023/06/06 13:04:06;;;;;;;6.00;2.78;;;;;;;;;;7401873;19;20724;-67
2023/06/06 13:06:32;;;;;;;6.18;2.80;;;;;;;;;;7400727;19;20011;-66
2023/06/06 13:08:57;;;;;;;4.63;2.60;;;;;;;;;;7400803;19;20473;-66
2023/06/06 13:11:23;;;;;;;4.15;2.20;;;;;;;;;;7398695;19;20117;-69
2023/06/06 13:13:48;;;;;;;5.40;2.70;;;;;;;;;;7418374;19;20002;-69
2023/06/06 13:16:13;;;;;;;7.05;2.65;;;;;;;;;;7400471;19;20015;-71
2023/06/06 13:18:39;;;;;;;4.90;2.72;;;;;;;;;;7401080;19;20007;-70
2023/06/06 13:21:04;;;;;;;5.57;2.53;;;;;;;;;;7402766;19;20013;-70
2023/06/06 13:23:30;;;;;;;6.45;2.97;;;;;;;;;;7400682;19;20011;-69
2023/06/06 13:25:56;;;;;;;4.40;2.50;;;;;;;;;;7428479;19;20015;-69
2023/06/06 13:28:22;;;;;;;5.55;2.72;;;;;;;;;;7404134;19;20040;-68
2023/06/06 13:30:48;;;;;;;6.18;2.65;;;;;;;;;;7413170;19;20757;-68
2023/06/06 13:33:13;;;;;;;6.60;2.97;;;;;;;;;;7412023;19;20002;-69
2023/06/06 13:35:38;;;;;;;5.50;2.40;;;;;;;;;;7408326;19;20033;-69
2023/06/06 13:38:05;;;;;;;4.90;2.92;;;;;;;;;;7402197;19;20015;-67
2023/06/06 13:40:30;;;;;;;5.90;3.05;;;;;;;;;;7423506;19;20081;-68
2023/06/06 13:42:55;;;;;;;5.25;2.75;;;;;;;;;;7401623;19;20095;-69
2023/06/06 13:45:21;;;;;;;4.88;2.80;;;;;;;;;;7377027;19;20482;-69
2023/06/06 13:47:47;;;;;;;4.68;2.78;;;;;;;;;;7371693;19;20023;-70
2023/06/06 13:50:12;;;;;;;11.38;2.83;;;;;;;;;;7372486;19;20005;-71
2023/06/06 13:52:39;;;;;;;5.97;3.10;;;;;;;;;;7392866;19;20026;-71
2023/06/06 13:55:05;;;;;;;4.93;3.05;;;;;;;;;;7372537;19;20002;-72
2023/06/06 13:57:31;;;;;;;4.70;2.42;;;;;;;;;;7371172;19;20023;-71
2023/06/06 13:59:57;;;;;;;3.60;2.45;;;;;;;;;;7370737;19;20010;-67
2023/06/06 14:02:23;;;;;;;9.07;2.88;;;;;;;;;;7375311;19;20030;-70
2023/06/06 14:04:49;;;;;;;4.57;2.72;;;;;;;;;;7400198;19;20025;-69
2023/06/06 14:07:16;;;;;;;9.98;3.22;;;;;;;;;;7376968;19;20061;-69
2023/06/06 14:09:41;;;;;;;9.10;3.00;;;;;;;;;;7375970;19;20033;-66
2023/06/06 14:12:07;;;;;;;6.10;2.70;;;;;;;;;;7378493;19;20017;-66
2023/06/06 14:14:33;;;;;;;8.77;3.50;;;;;;;;;;7377281;19;20036;-74
2023/06/06 14:16:59;;;;;;;5.38;3.08;;;;;;;;;;7400540;19;20003;-70
2023/06/06 14:19:34;;;;;;;7.65;2.90;;;;;;;;;;7379345;19;20038;-71
2023/06/06 14:22:21;;;;;;;;;;;;;;;;;;;;;
2023/06/06 14:24:45;;;;;;;6.63;3.08;;;;;;;;;;7375376;19;20404;-70
2023/06/06 14:27:10;;;;;;;5.90;2.83;;;;;;;;;;7370606;19;20014;-71
2023/06/06 14:29:36;;;;;;;5.45;2.70;;;;;;;;;;7371237;19;20018;-69
2023/06/06 14:32:01;;;;;;;6.28;2.90;;;;;;;;;;7385617;19;20432;-72
2023/06/06 14:34:26;;;;;;;6.55;2.97;;;;;;;;;;7385218;19;20021;-70
2023/06/06 14:36:51;;;;;;;5.78;2.72;;;;;;;;;;7372211;19;20013;-70
2023/06/06 14:39:17;;;;;;;5.35;3.17;;;;;;;;;;7372576;19;20046;-70
2023/06/06 14:41:42;;;;;;;6.82;2.97;;;;;;;;;;7372611;19;20487;-71
2023/06/06 14:44:07;;;;;;;4.97;2.70;;;;;;;;;;7370858;19;20006;-71